createdAt,value
2023-03-23T16:00:21.373Z,13.27
2023-03-23T16:02:58.770Z,12.10
2023-03-23T16:05:30.110Z,9.80
2023-03-23T16:08:00.850Z,12.00
2023-03-23T16:10:31.759Z,11.75
2023-03-23T16:13:02.987Z,10.20
2023-03-23T16:15:33.744Z,10.15
2023-03-23T16:18:07.159Z,11.98
2023-03-23T16:20:38.462Z,14.05
2023-03-23T16:23:12.060Z,11.05
2023-03-23T16:25:42.888Z,10.27
2023-03-23T16:28:15.018Z,8.15
2023-03-23T16:30:46.374Z,9.68
2023-03-23T16:33:17.345Z,9.55
2023-03-23T16:35:50.393Z,9.65
2023-03-23T16:38:21.306Z,14.23
2023-03-23T16:40:54.125Z,11.63
2023-03-23T16:43:25.065Z,10.25
2023-03-23T16:45:58.784Z,14.15
2023-03-23T16:48:30.067Z,10.57
2023-03-23T16:51:00.987Z,11.65
2023-03-23T16:53:32.018Z,11.18
2023-03-23T16:56:03.474Z,9.93
2023-03-23T16:58:34.302Z,8.57
2023-03-23T17:01:06.903Z,9.55
2023-03-23T17:03:37.478Z,9.93
2023-03-23T17:06:08.562Z,9.77
2023-03-23T17:08:39.332Z,8.43
2023-03-23T17:11:12.374Z,8.48
2023-03-23T17:13:43.096Z,8.90
2023-03-23T17:16:24.369Z,10.55
2023-03-23T17:18:55.245Z,8.30
2023-03-23T17:21:26.806Z,10.98
2023-03-23T17:23:58.224Z,9.82
2023-03-23T17:26:28.898Z,10.52
2023-03-23T17:28:59.549Z,7.40
2023-03-23T17:31:30.674Z,9.13
2023-03-23T17:34:01.812Z,8.55
2023-03-23T17:36:32.687Z,9.98
2023-03-23T17:39:04.196Z,10.68
2023-03-23T17:41:35.929Z,9.52
2023-03-23T17:44:10.069Z,11.27
2023-03-23T17:46:41.856Z,8.60
2023-03-23T17:49:12.570Z,9.20
2023-03-23T17:51:44.650Z,10.45
2023-03-23T17:54:17.148Z,12.35
2023-03-23T17:56:50.941Z,8.38
2023-03-23T17:59:22.822Z,13.82
2023-03-23T18:01:54.721Z,11.82
2023-03-23T18:04:28.105Z,11.30
2023-03-23T18:06:59.817Z,12.25
2023-03-23T18:09:31.672Z,15.35
2023-03-23T18:12:03.148Z,19.60
2023-03-23T18:14:33.979Z,18.90
2023-03-23T18:17:04.708Z,21.88
2023-03-23T18:19:35.343Z,15.43
2023-03-23T18:22:06.372Z,20.65
2023-03-23T18:24:37.255Z,22.02
2023-03-23T18:27:08.278Z,24.98
2023-03-23T18:29:38.939Z,18.40
2023-03-23T18:32:10.785Z,17.05
2023-03-23T18:34:51.019Z,21.45
2023-03-23T18:37:22.301Z,18.60
2023-03-23T18:39:54.633Z,17.20
2023-03-23T18:42:25.045Z,22.60
2023-03-23T18:44:56.556Z,24.77
2023-03-23T18:47:28.223Z,19.35
2023-03-23T18:50:00.512Z,22.77
2023-03-23T18:52:32.422Z,19.38
2023-03-23T18:55:03.775Z,15.52
2023-03-23T18:57:34.351Z,22.50
2023-03-23T19:00:05.742Z,15.10
2023-03-23T19:02:37.098Z,20.88
2023-03-23T19:05:09.833Z,20.55
2023-03-23T19:07:40.877Z,20.90
2023-03-23T19:10:11.925Z,22.92
2023-03-23T19:12:42.844Z,13.05
2023-03-23T19:15:22.478Z,17.60
2023-03-23T19:17:56.929Z,16.85
2023-03-23T19:20:57.196Z,19.35
2023-03-23T19:23:19.941Z,14.77
2023-03-23T19:25:51.416Z,18.30
2023-03-23T19:29:05.462Z,22.85
2023-03-23T19:31:16.508Z,23.73
2023-03-23T19:33:47.539Z,21.52
2023-03-23T19:36:18.830Z,15.65
2023-03-23T19:38:49.692Z,25.00
2023-03-23T19:41:20.723Z,17.50
2023-03-23T19:43:51.818Z,17.92
2023-03-23T19:46:22.540Z,17.05
2023-03-23T19:48:53.475Z,26.98
2023-03-23T19:51:26.835Z,17.63
2023-03-23T19:53:58.960Z,21.65
2023-03-23T19:56:33.629Z,24.15
2023-03-23T19:59:05.204Z,21.23
2023-03-23T20:01:36.036Z,28.13
2023-03-23T20:04:07.323Z,17.08
2023-03-23T20:06:38.490Z,22.77
2023-03-23T20:09:10.277Z,26.50
2023-03-23T20:11:41.739Z,26.50
2023-03-23T20:14:12.607Z,19.02
2023-03-23T20:16:43.812Z,20.48
2023-03-23T20:19:14.364Z,22.42
2023-03-23T20:21:45.883Z,31.20
2023-03-23T20:24:17.468Z,27.25
2023-03-23T20:26:48.462Z,27.27
2023-03-23T20:29:19.332Z,23.10
2023-03-23T20:31:53.862Z,21.77
2023-03-23T20:34:31.986Z,27.52
2023-03-23T20:37:03.703Z,29.98
2023-03-23T20:39:35.340Z,36.80
2023-03-23T20:42:07.466Z,31.75
2023-03-23T20:44:40.290Z,30.88
2023-03-23T20:47:13.173Z,30.23
2023-03-23T20:49:44.025Z,29.55
2023-03-23T20:52:28.061Z,29.67
2023-03-23T20:54:59.084Z,24.13
2023-03-23T20:57:29.736Z,27.60
2023-03-23T21:00:00.413Z,28.02
2023-03-23T21:02:31.680Z,27.02
2023-03-23T21:05:05.234Z,31.58
2023-03-23T21:07:37.048Z,23.30
2023-03-23T21:10:08.326Z,24.77
2023-03-23T21:12:41.678Z,35.05
2023-03-23T21:15:12.553Z,35.08
2023-03-23T21:17:43.725Z,25.05
2023-03-23T21:20:15.395Z,24.45
2023-03-23T21:22:46.268Z,22.02
2023-03-23T21:25:17.183Z,21.98
2023-03-23T21:27:48.522Z,21.65
2023-03-23T21:30:22.824Z,20.17
2023-03-23T21:32:53.471Z,30.48
2023-03-23T21:35:25.129Z,29.60
2023-03-23T21:37:55.746Z,24.63
2023-03-23T21:40:28.215Z,28.67
2023-03-23T21:42:59.462Z,29.05
2023-03-23T21:45:31.372Z,27.20
2023-03-23T21:48:05.631Z,24.63
2023-03-23T21:50:40.294Z,33.70
2023-03-23T21:53:13.689Z,23.67
2023-03-23T21:55:45.873Z,28.00
2023-03-23T21:58:16.484Z,30.95
2023-03-23T22:00:50.877Z,28.17
2023-03-23T22:03:25.963Z,34.13
2023-03-23T22:05:59.096Z,39.90
2023-03-23T22:08:33.973Z,40.55
2023-03-23T22:11:07.799Z,32.95
2023-03-23T22:13:40.329Z,28.95
2023-03-23T22:16:18.859Z,35.50
2023-03-23T22:18:52.215Z,47.00
2023-03-23T22:21:24.070Z,49.95
2023-03-23T22:23:56.893Z,44.03
2023-03-23T22:26:28.789Z,41.58
2023-03-23T22:29:00.612Z,47.65
2023-03-23T22:31:35.134Z,48.83
2023-03-23T22:34:07.371Z,44.15
2023-03-23T22:36:40.017Z,51.33
2023-03-23T22:39:10.973Z,47.25
2023-03-23T22:41:43.329Z,43.50
2023-03-23T22:44:19.116Z,38.22
2023-03-23T22:46:50.923Z,37.85
2023-03-23T22:49:21.914Z,37.65
2023-03-23T22:51:52.585Z,44.63
2023-03-23T22:54:24.477Z,38.42
2023-03-23T22:56:55.454Z,40.88
2023-03-23T22:59:26.077Z,37.55
2023-03-23T23:01:57.102Z,43.70
2023-03-23T23:04:28.322Z,38.08
2023-03-23T23:07:11.950Z,42.03
2023-03-23T23:09:44.749Z,41.78
2023-03-23T23:12:16.669Z,49.00
2023-03-23T23:14:47.821Z,64.90
2023-03-23T23:17:18.763Z,49.50
2023-03-23T23:19:49.437Z,44.08
2023-03-23T23:22:20.966Z,36.55
2023-03-23T23:24:51.847Z,41.38
2023-03-23T23:27:22.980Z,45.42
2023-03-23T23:29:54.040Z,37.60
2023-03-23T23:32:25.110Z,37.83
2023-03-23T23:34:56.136Z,34.55
2023-03-23T23:37:27.243Z,26.17
2023-03-23T23:39:57.954Z,29.00
2023-03-23T23:42:32.102Z,25.98
2023-03-23T23:45:04.113Z,34.35
2023-03-23T23:47:34.875Z,29.58
2023-03-23T23:50:08.335Z,31.25
2023-03-23T23:52:41.186Z,29.10
2023-03-23T23:55:16.386Z,33.75
2023-03-23T23:57:48.795Z,31.88
